createdAt,value
2023-03-26T00:01:29.690Z,13.75
2023-03-26T00:03:57.542Z,17.07
2023-03-26T00:06:29.990Z,15.55
2023-03-26T00:08:58.406Z,15.77
2023-03-26T00:11:28.837Z,15.88
2023-03-26T00:13:59.616Z,15.05
2023-03-26T00:16:30.239Z,16.17
2023-03-26T00:18:58.261Z,16.88
2023-03-26T00:21:28.194Z,16.30
2023-03-26T00:24:01.155Z,17.15
2023-03-26T00:26:31.162Z,16.88
2023-03-26T00:29:00.236Z,17.20
2023-03-26T00:31:27.846Z,17.67
2023-03-26T00:33:55.619Z,17.23
2023-03-26T00:36:26.736Z,17.20
2023-03-26T00:38:54.866Z,16.08
2023-03-26T00:41:26.695Z,15.45
2023-03-26T00:43:56.628Z,13.88
2023-03-26T00:46:25.560Z,15.27
2023-03-26T00:48:52.821Z,14.33
2023-03-26T00:51:21.316Z,14.25
2023-03-26T00:53:49.812Z,14.57
2023-03-26T00:56:17.468Z,16.05
2023-03-26T00:58:46.102Z,15.27
2023-03-26T01:01:16.138Z,14.32
2023-03-26T01:04:00.958Z,15.52
2023-03-26T01:06:35.888Z,15.25
2023-03-26T01:09:13.454Z,14.52
2023-03-26T01:11:40.666Z,15.20
2023-03-26T01:14:15.997Z,14.32
2023-03-26T01:16:47.295Z,15.60
2023-03-26T01:19:46.548Z,14.85
2023-03-26T01:22:18.053Z,16.00
2023-03-26T01:24:48.730Z,14.93
2023-03-26T01:27:24.306Z,15.57
2023-03-26T01:30:14.913Z,15.98
2023-03-26T01:33:19.459Z,16.38
2023-03-26T01:36:05.761Z,15.48
2023-03-26T01:39:00.474Z,16.88
2023-03-26T01:41:51.494Z,16.30
2023-03-26T01:44:30.286Z,17.30
2023-03-26T01:46:59.618Z,16.57
2023-03-26T01:49:30.297Z,17.85
2023-03-26T01:51:58.086Z,16.98
2023-03-26T01:54:28.523Z,17.27
2023-03-26T01:57:05.986Z,17.10
2023-03-26T02:00:11.759Z,17.75
2023-03-26T02:02:47.935Z,18.00
2023-03-26T02:05:26.210Z,17.92
2023-03-26T02:08:05.560Z,16.80
2023-03-26T02:10:38.721Z,18.40
2023-03-26T02:13:06.183Z,17.98
2023-03-26T02:15:33.520Z,18.50
2023-03-26T02:20:56.162Z,18.15
2023-03-26T02:23:23.062Z,17.77
2023-03-26T02:25:49.941Z,17.25
2023-03-26T02:28:17.369Z,18.35
2023-03-26T02:30:45.880Z,18.00
2023-03-26T02:33:15.317Z,18.30
2023-03-26T02:35:45.936Z,18.90
2023-03-26T02:38:14.531Z,18.75
2023-03-26T02:40:42.523Z,18.70
2023-03-26T02:43:09.467Z,19.23
2023-03-26T02:45:37.281Z,20.50
2023-03-26T02:50:50.199Z,18.40
2023-03-26T02:53:23.855Z,21.70
2023-03-26T02:55:59.407Z,19.45
2023-03-26T02:58:30.172Z,19.15
2023-03-26T03:00:57.576Z,19.77
2023-03-26T03:03:30.590Z,19.65
2023-03-26T03:05:58.305Z,19.20
2023-03-26T03:11:14.986Z,18.15
2023-03-26T03:13:50.304Z,19.33
2023-03-26T03:16:21.290Z,20.02
2023-03-26T03:18:57.789Z,20.02
2023-03-26T03:21:33.681Z,19.35
2023-03-26T03:24:00.772Z,21.52
2023-03-26T03:26:31.555Z,20.75
2023-03-26T03:29:09.272Z,19.70
2023-03-26T03:31:36.669Z,20.45
2023-03-26T03:34:08.162Z,20.00
2023-03-26T03:36:38.733Z,21.23
2023-03-26T03:39:21.144Z,20.20
2023-03-26T03:41:49.338Z,20.58
2023-03-26T03:44:17.107Z,20.10
2023-03-26T03:46:44.237Z,19.52
2023-03-26T03:49:11.394Z,19.48
2023-03-26T03:51:38.479Z,20.33
2023-03-26T03:54:14.593Z,19.00
2023-03-26T03:57:02.252Z,19.90
2023-03-26T03:59:29.214Z,19.92
2023-03-26T04:01:56.839Z,19.92
2023-03-26T04:04:32.856Z,18.65
2023-03-26T04:07:02.472Z,19.15
2023-03-26T04:09:55.300Z,19.85
2023-03-26T04:12:31.003Z,19.67
2023-03-26T04:15:01.577Z,18.17
2023-03-26T04:17:30.593Z,18.85
2023-03-26T04:19:57.801Z,18.88
2023-03-26T04:22:34.733Z,19.05
2023-03-26T04:25:05.142Z,18.85
2023-03-26T04:27:38.760Z,21.27
2023-03-26T04:30:20.876Z,20.65
2023-03-26T04:33:15.429Z,20.17
2023-03-26T04:35:45.426Z,20.38
2023-03-26T04:38:16.845Z,19.80
2023-03-26T04:40:49.283Z,19.48
2023-03-26T04:43:37.070Z,19.02
2023-03-26T04:46:04.492Z,19.17
2023-03-26T04:48:38.758Z,19.67
2023-03-26T04:51:09.993Z,19.38
2023-03-26T04:53:37.434Z,20.27
2023-03-26T04:56:16.618Z,20.35
2023-03-26T04:59:20.166Z,19.20
2023-03-26T05:01:48.475Z,21.05
2023-03-26T05:04:17.154Z,19.15
2023-03-26T05:06:44.551Z,19.90
2023-03-26T05:09:21.776Z,18.83
2023-03-26T05:12:17.854Z,19.60
2023-03-26T05:14:56.566Z,20.60
2023-03-26T05:17:41.799Z,19.30
2023-03-26T05:20:22.148Z,18.30
2023-03-26T05:22:50.641Z,17.23
2023-03-26T05:25:31.791Z,17.45
2023-03-26T05:28:01.622Z,16.92
2023-03-26T05:30:47.354Z,18.80
2023-03-26T05:33:14.960Z,17.65
2023-03-26T05:36:07.125Z,17.52
2023-03-26T05:38:34.158Z,17.58
2023-03-26T05:41:06.253Z,17.98
2023-03-26T05:43:36.804Z,17.83
2023-03-26T05:46:11.541Z,17.42
2023-03-26T05:48:39.328Z,16.30
2023-03-26T05:51:07.848Z,17.35
2023-03-26T05:53:35.860Z,18.30
2023-03-26T05:56:25.925Z,17.25
2023-03-26T05:58:58.679Z,18.33
2023-03-26T06:01:46.013Z,17.73
2023-03-26T06:04:17.015Z,18.33
2023-03-26T06:07:03.929Z,16.98
2023-03-26T06:09:31.627Z,17.52
2023-03-26T06:11:58.931Z,18.95
2023-03-26T06:14:26.522Z,17.90
2023-03-26T06:17:15.006Z,17.67
2023-03-26T06:20:03.012Z,18.38
2023-03-26T06:22:36.466Z,17.85
2023-03-26T06:25:21.157Z,18.50
2023-03-26T06:28:20.613Z,17.10
2023-03-26T06:31:05.560Z,18.33
2023-03-26T06:33:39.026Z,17.35
2023-03-26T06:36:06.404Z,18.90
2023-03-26T06:38:33.665Z,17.13
2023-03-26T06:41:05.434Z,17.55
2023-03-26T06:44:04.591Z,17.88
2023-03-26T06:46:54.424Z,16.98
2023-03-26T06:49:42.708Z,18.30
2023-03-26T06:52:37.525Z,18.20
2023-03-26T06:55:24.335Z,18.15
2023-03-26T06:58:18.709Z,19.05
2023-03-26T07:01:05.912Z,18.15
2023-03-26T07:03:51.233Z,17.75
2023-03-26T07:06:44.275Z,17.00
2023-03-26T07:09:40.437Z,16.95
2023-03-26T07:12:10.358Z,17.70
2023-03-26T07:14:56.081Z,15.85
2023-03-26T07:17:26.707Z,15.60
2023-03-26T07:20:13.913Z,16.30
2023-03-26T07:22:42.281Z,18.25
2023-03-26T07:25:18.685Z,16.90
2023-03-26T07:28:11.400Z,15.40
2023-03-26T07:31:15.585Z,17.27
2023-03-26T07:34:26.441Z,18.88
2023-03-26T07:37:20.729Z,16.98
2023-03-26T07:40:36.180Z,17.70
2023-03-26T07:44:02.962Z,18.10
2023-03-26T07:46:57.842Z,16.92
2023-03-26T07:49:35.372Z,17.90
2023-03-26T07:52:10.895Z,17.77
2023-03-26T07:55:04.153Z,18.40
2023-03-26T07:58:04.616Z,19.02
2023-03-26T08:00:48.065Z,17.83
2023-03-26T08:03:28.121Z,19.00
2023-03-26T08:06:14.698Z,16.98
2023-03-26T08:09:22.933Z,16.20
2023-03-26T08:12:16.378Z,16.27
2023-03-26T08:15:08.131Z,17.75
2023-03-26T08:17:58.434Z,16.75
2023-03-26T08:20:35.419Z,16.85
2023-03-26T08:23:13.606Z,17.73
2023-03-26T08:26:09.453Z,18.60
2023-03-26T08:28:46.191Z,17.95
2023-03-26T08:31:15.671Z,20.23
2023-03-26T08:33:43.792Z,18.73
2023-03-26T08:36:10.937Z,18.58
2023-03-26T08:38:37.903Z,17.65
2023-03-26T08:41:11.181Z,17.33
2023-03-26T08:43:50.266Z,18.50
2023-03-26T08:46:57.256Z,16.50
2023-03-26T08:49:33.095Z,16.83
2023-03-26T08:52:21.561Z,17.83
2023-03-26T08:55:17.364Z,17.42
2023-03-26T08:58:08.951Z,16.70
2023-03-26T09:00:57.614Z,16.92
2023-03-26T09:03:58.531Z,16.02
2023-03-26T09:07:06.844Z,16.98
2023-03-26T09:10:02.885Z,16.70
2023-03-26T09:12:49.654Z,15.93
2023-03-26T09:15:30.940Z,16.10
2023-03-26T09:18:34.205Z,16.23
2023-03-26T09:21:12.263Z,15.35
2023-03-26T09:23:52.652Z,16.30
2023-03-26T09:26:51.007Z,14.80
2023-03-26T09:30:04.055Z,13.32
2023-03-26T09:33:09.833Z,13.05
2023-03-26T09:36:02.038Z,12.55
2023-03-26T09:38:35.117Z,11.85
2023-03-26T09:41:17.904Z,11.25
2023-03-26T09:44:11.150Z,11.73
2023-03-26T09:47:26.304Z,12.77
2023-03-26T09:50:21.595Z,12.77
2023-03-26T09:53:15.700Z,12.13
2023-03-26T09:55:54.944Z,13.00
2023-03-26T09:58:37.159Z,11.70
2023-03-26T10:01:35.152Z,11.52
2023-03-26T10:07:02.718Z,10.65
2023-03-26T10:09:51.000Z,11.57
2023-03-26T10:12:45.992Z,11.65
2023-03-26T10:15:43.375Z,11.80
2023-03-26T10:18:31.790Z,11.27
2023-03-26T10:21:08.304Z,11.25
2023-03-26T10:24:21.096Z,11.18
2023-03-26T10:27:24.694Z,9.90
2023-03-26T10:30:16.309Z,10.80
2023-03-26T10:32:58.237Z,9.98
2023-03-26T10:35:45.307Z,11.30
2023-03-26T10:38:40.251Z,10.30
2023-03-26T10:41:23.829Z,9.48
2023-03-26T10:44:17.277Z,11.18
2023-03-26T10:47:23.514Z,10.40
2023-03-26T10:49:56.227Z,9.70
2023-03-26T10:52:29.458Z,9.43
2023-03-26T10:55:18.239Z,7.97
2023-03-26T10:58:12.477Z,7.47
2023-03-26T11:00:50.612Z,7.40
2023-03-26T11:03:35.766Z,7.28
2023-03-26T11:06:25.570Z,7.07
2023-03-26T11:09:18.618Z,11.20
2023-03-26T11:12:26.321Z,9.85
2023-03-26T11:17:47.922Z,6.55
2023-03-26T11:20:17.964Z,6.22
2023-03-26T11:23:22.948Z,5.03
2023-03-26T11:26:15.567Z,4.28
2023-03-26T11:29:33.594Z,3.50
2023-03-26T11:32:11.643Z,3.83
2023-03-26T11:34:47.021Z,4.45
2023-03-26T11:37:38.680Z,4.18
2023-03-26T11:40:16.430Z,4.75
2023-03-26T11:42:43.926Z,4.30
2023-03-26T11:45:20.883Z,4.72
2023-03-26T11:47:57.656Z,4.80
2023-03-26T11:50:29.758Z,5.15
2023-03-26T11:53:12.395Z,4.70
2023-03-26T11:55:51.410Z,4.85
2023-03-26T11:58:38.294Z,4.45
2023-03-26T12:01:17.162Z,4.80
2023-03-26T12:04:03.618Z,4.50
2023-03-26T12:06:33.039Z,4.82
2023-03-26T12:09:00.080Z,4.55
2023-03-26T12:11:34.631Z,5.18
2023-03-26T12:14:04.849Z,4.80
2023-03-26T12:16:33.648Z,4.80
2023-03-26T12:19:06.141Z,5.10
2023-03-26T12:21:50.344Z,5.15
2023-03-26T12:24:33.658Z,4.07
2023-03-26T12:27:24.809Z,4.68
2023-03-26T12:30:25.633Z,4.70
2023-03-26T12:33:03.506Z,4.13
2023-03-26T12:35:34.310Z,4.70
2023-03-26T12:38:24.223Z,4.97
2023-03-26T12:41:04.260Z,4.90
2023-03-26T12:44:48.417Z,5.10
2023-03-26T12:47:57.522Z,4.77
2023-03-26T12:49:22.451Z,4.70
2023-03-26T12:52:07.161Z,4.75
2023-03-26T12:54:56.495Z,4.53
2023-03-26T12:57:26.473Z,4.28
2023-03-26T13:00:07.596Z,4.25
2023-03-26T13:02:41.358Z,4.28
2023-03-26T13:05:34.140Z,3.75
2023-03-26T13:08:03.714Z,3.88
2023-03-26T13:13:22.406Z,3.45
2023-03-26T13:15:56.341Z,4.18
2023-03-26T13:18:46.355Z,3.92
2023-03-26T13:21:28.509Z,3.92
2023-03-26T13:24:04.644Z,3.70
2023-03-26T13:27:00.703Z,3.08
2023-03-26T13:29:50.047Z,3.50
2023-03-26T13:32:30.441Z,4.03
2023-03-26T13:35:08.869Z,3.20
2023-03-26T13:38:11.566Z,2.97
2023-03-26T13:40:38.597Z,3.78
2023-03-26T13:43:30.872Z,3.65
2023-03-26T13:46:16.597Z,3.05
2023-03-26T13:49:04.085Z,2.72
2023-03-26T13:51:45.351Z,2.90
2023-03-26T13:54:26.122Z,2.88
2023-03-26T13:56:59.908Z,3.05
2023-03-26T13:59:32.494Z,2.80
2023-03-26T14:02:11.047Z,2.35
2023-03-26T14:04:44.413Z,3.22
2023-03-26T14:07:28.003Z,2.92
2023-03-26T14:10:06.730Z,2.50
2023-03-26T14:13:15.635Z,2.50
2023-03-26T14:15:49.420Z,2.70
2023-03-26T14:18:31.433Z,2.60
2023-03-26T14:21:18.538Z,3.08
2023-03-26T14:23:48.779Z,2.45
2023-03-26T14:26:40.397Z,2.80
2023-03-26T14:29:39.255Z,2.67
2023-03-26T14:32:53.221Z,2.53
2023-03-26T14:35:38.224Z,3.30
2023-03-26T14:38:33.482Z,3.38
2023-03-26T14:41:14.406Z,3.03
2023-03-26T14:44:04.315Z,3.13
2023-03-26T14:46:41.266Z,2.60
2023-03-26T14:49:43.593Z,2.53
2023-03-26T14:52:18.573Z,2.63
2023-03-26T14:54:48.231Z,3.10
2023-03-26T14:59:49.792Z,2.10
2023-03-26T15:02:22.738Z,2.28
2023-03-26T15:04:49.756Z,2.63
2023-03-26T15:07:41.706Z,2.28
2023-03-26T15:10:24.612Z,2.28
2023-03-26T15:13:30.697Z,2.35
2023-03-26T15:16:31.613Z,2.20
2023-03-26T15:19:36.503Z,2.50
2023-03-26T15:22:26.116Z,2.10
2023-03-26T15:27:38.743Z,2.85
2023-03-26T15:30:30.550Z,2.70
2023-03-26T15:33:22.718Z,2.20
2023-03-26T15:36:05.380Z,2.80
2023-03-26T15:38:57.327Z,2.80
2023-03-26T15:41:32.482Z,3.10
2023-03-26T15:44:23.756Z,2.63
2023-03-26T15:47:03.700Z,2.30
2023-03-26T15:49:44.704Z,2.45
2023-03-26T15:52:43.725Z,2.28
2023-03-26T15:55:16.642Z,2.78
2023-03-26T15:57:47.825Z,2.40
2023-03-26T16:00:25.132Z,2.60
2023-03-26T16:03:10.442Z,2.35
2023-03-26T16:05:53.367Z,2.33
2023-03-26T16:08:41.576Z,2.60
2023-03-26T16:11:12.652Z,2.70
2023-03-26T16:13:43.705Z,2.50
2023-03-26T16:16:51.544Z,2.60
2023-03-26T16:19:24.056Z,2.42
2023-03-26T16:22:06.170Z,3.38
2023-03-26T16:24:40.979Z,3.38
2023-03-26T16:27:29.987Z,3.55
2023-03-26T16:30:30.626Z,4.25
2023-03-26T16:33:09.198Z,3.92
2023-03-26T16:36:14.310Z,2.97
2023-03-26T16:39:11.554Z,2.10
2023-03-26T16:41:50.438Z,2.67
2023-03-26T16:44:37.669Z,2.40
2023-03-26T16:47:14.479Z,3.03
2023-03-26T16:50:15.332Z,2.80
2023-03-26T16:52:45.185Z,2.78
2023-03-26T16:55:34.736Z,2.95
2023-03-26T16:58:32.913Z,2.70
2023-03-26T17:01:35.590Z,2.45
2023-03-26T17:04:09.569Z,2.25
2023-03-26T17:07:08.981Z,2.70
2023-03-26T17:10:08.784Z,2.92
2023-03-26T17:12:37.084Z,2.88
2023-03-26T17:15:12.970Z,2.90
2023-03-26T17:18:04.468Z,3.17
2023-03-26T17:20:35.874Z,2.92
2023-03-26T17:23:33.231Z,3.05
2023-03-26T17:26:25.781Z,3.20
2023-03-26T17:29:09.566Z,3.20
2023-03-26T17:32:15.065Z,3.40
2023-03-26T17:34:50.266Z,3.20
2023-03-26T17:37:17.219Z,3.30
2023-03-26T17:39:45.391Z,4.65
2023-03-26T17:42:35.583Z,3.35
2023-03-26T17:45:09.061Z,2.75
2023-03-26T17:47:39.645Z,2.75
2023-03-26T17:50:54.170Z,3.05
2023-03-26T17:53:30.739Z,3.45
2023-03-26T17:56:03.338Z,3.25
2023-03-26T17:58:42.746Z,3.33
2023-03-26T18:01:15.797Z,4.05
2023-03-26T18:03:54.521Z,4.40
2023-03-26T18:06:47.720Z,3.90
2023-03-26T18:09:33.559Z,5.20
2023-03-26T18:12:21.567Z,6.80
2023-03-26T18:15:25.440Z,6.10
2023-03-26T18:18:21.057Z,6.65
2023-03-26T18:20:50.463Z,6.22
2023-03-26T18:23:35.152Z,6.60
2023-03-26T18:26:33.084Z,8.52
2023-03-26T18:29:18.664Z,7.93
2023-03-26T18:31:48.215Z,5.78
2023-03-26T18:34:19.496Z,4.75
2023-03-26T18:36:58.003Z,4.53
2023-03-26T18:39:25.071Z,4.88
2023-03-26T18:41:52.262Z,4.15
2023-03-26T18:44:19.700Z,4.28
2023-03-26T18:46:46.805Z,4.70
2023-03-26T18:49:16.350Z,4.35
2023-03-26T18:51:56.237Z,3.92
2023-03-26T18:54:28.648Z,5.03
2023-03-26T18:56:55.579Z,4.40
2023-03-26T18:59:31.831Z,5.10
2023-03-26T19:02:06.671Z,4.75
2023-03-26T19:04:35.021Z,4.07
2023-03-26T19:07:02.863Z,4.00
2023-03-26T19:09:32.397Z,3.95
2023-03-26T19:15:01.929Z,4.00
2023-03-26T19:17:36.829Z,4.60
2023-03-26T19:20:07.718Z,3.95
2023-03-26T19:22:34.973Z,3.53
2023-03-26T19:25:03.320Z,4.00
2023-03-26T19:27:30.688Z,3.88
2023-03-26T19:29:58.336Z,4.45
2023-03-26T19:32:34.836Z,4.03
2023-03-26T19:35:04.153Z,4.20
2023-03-26T19:37:31.803Z,4.57
2023-03-26T19:40:14.295Z,4.10
2023-03-26T19:42:44.800Z,3.45
2023-03-26T19:45:20.786Z,3.25
2023-03-26T19:47:59.988Z,2.90
2023-03-26T19:50:39.759Z,3.30
2023-03-26T19:53:18.883Z,4.10
2023-03-26T19:56:05.270Z,4.93
2023-03-26T19:58:36.791Z,4.68
2023-03-26T20:01:05.080Z,4.78
2023-03-26T20:03:41.737Z,4.30
2023-03-26T20:06:13.531Z,3.65
2023-03-26T20:08:40.964Z,4.35
2023-03-26T20:11:21.170Z,3.50
2023-03-26T20:13:49.235Z,3.80
2023-03-26T20:16:44.558Z,3.40
2023-03-26T20:19:14.003Z,4.20
2023-03-26T20:21:41.705Z,3.10
2023-03-26T20:24:17.041Z,3.50
2023-03-26T20:26:45.643Z,3.13
2023-03-26T20:29:13.849Z,4.40
2023-03-26T20:31:42.124Z,4.80
2023-03-26T20:34:18.995Z,5.57
2023-03-26T20:36:47.070Z,5.50
2023-03-26T20:39:14.304Z,4.97
2023-03-26T20:41:46.015Z,4.55
2023-03-26T20:44:15.927Z,4.20
2023-03-26T20:46:44.143Z,4.03
2023-03-26T20:49:11.653Z,3.65
2023-03-26T20:51:41.859Z,3.65
2023-03-26T20:54:21.748Z,2.42
2023-03-26T20:59:22.858Z,2.60
2023-03-26T21:01:50.477Z,2.53
2023-03-26T21:04:19.180Z,2.38
2023-03-26T21:06:46.596Z,2.17
2023-03-26T21:09:17.628Z,2.38
2023-03-26T21:11:52.963Z,2.15
2023-03-26T21:14:39.032Z,1.98
2023-03-26T21:17:08.341Z,1.85
2023-03-26T21:19:35.376Z,2.08
2023-03-26T21:22:38.169Z,1.90
2023-03-26T21:25:24.312Z,1.40
2023-03-26T21:27:57.652Z,1.90
2023-03-26T21:30:24.879Z,1.60
2023-03-26T21:32:52.005Z,1.23
2023-03-26T21:35:19.606Z,1.20
2023-03-26T21:37:49.462Z,1.20
2023-03-26T21:42:47.873Z,1.13
2023-03-26T21:45:15.698Z,1.10
2023-03-26T21:47:43.509Z,1.13
2023-03-26T21:50:13.366Z,1.25
2023-03-26T21:52:47.205Z,1.02
2023-03-26T21:55:20.107Z,1.10
2023-03-26T21:58:16.577Z,1.05
2023-03-26T22:00:43.756Z,1.20
2023-03-26T22:03:33.013Z,1.05
2023-03-26T22:06:11.354Z,1.20
2023-03-26T22:08:40.633Z,1.25
2023-03-26T22:11:09.248Z,1.10
2023-03-26T22:13:36.797Z,1.10
2023-03-26T22:16:04.787Z,1.10
2023-03-26T22:18:32.773Z,1.08
2023-03-26T22:21:00.378Z,1.30
2023-03-26T22:23:28.138Z,1.50
2023-03-26T22:25:55.248Z,1.50
2023-03-26T22:28:22.471Z,1.40
2023-03-26T22:30:49.450Z,1.20
2023-03-26T22:33:17.920Z,1.35
2023-03-26T22:35:45.147Z,1.20
2023-03-26T22:38:12.039Z,1.42
2023-03-26T22:40:39.289Z,1.40
2023-03-26T22:43:06.320Z,1.40
2023-03-26T22:45:33.195Z,1.13
2023-03-26T22:48:03.845Z,1.10
2023-03-26T22:50:32.050Z,1.13
2023-03-26T22:52:58.940Z,1.00
2023-03-26T22:55:28.829Z,1.20
2023-03-26T22:57:57.331Z,1.05
2023-03-26T23:00:26.303Z,1.00
2023-03-26T23:02:55.843Z,1.40
2023-03-26T23:05:23.522Z,1.40
2023-03-26T23:07:51.922Z,1.20
2023-03-26T23:10:18.856Z,1.13
2023-03-26T23:12:45.786Z,1.20
2023-03-26T23:15:13.057Z,1.20
2023-03-26T23:17:40.321Z,1.00
2023-03-26T23:20:15.441Z,1.10
2023-03-26T23:22:43.420Z,1.15
2023-03-26T23:25:11.786Z,1.42
2023-03-26T23:27:40.200Z,1.10
2023-03-26T23:30:08.146Z,1.02
2023-03-26T23:32:37.828Z,0.70
2023-03-26T23:35:06.111Z,0.60
2023-03-26T23:37:35.015Z,0.93
2023-03-26T23:40:05.743Z,0.70
2023-03-26T23:45:01.237Z,0.80
2023-03-26T23:47:34.270Z,0.80
2023-03-26T23:50:04.961Z,0.82
2023-03-26T23:52:31.829Z,0.80
2023-03-26T23:54:59.889Z,0.80
2023-03-26T23:57:27.305Z,0.70
2023-03-26T23:59:54.699Z,0.90
